Time;durP1;ratioP1;P1;durP2;ratioP2;P2;SDS_P1;SDS_P2;PMS_P1;PMS_P2;Temp;Humidity;BMP_temperature;BMP_pressure;BME280_temperature;BME280_humidity;BME280_pressure;Samples;Min_cycle;Max_cycle;Signal;HPM_P1;HPM_P2
2023/12/31 00:01:38;;;;;;;41.90;23.90;;;;;;;4.28;100.00;99057.19;273136;1272;22308;-89
2023/12/31 00:07:40;;;;;;;44.70;24.00;;;;;;;4.29;100.00;99050.80;273232;1270;22980;-90
2023/12/31 00:13:43;;;;;;;43.70;24.40;;;;;;;4.33;100.00;99041.19;273017;1270;233846;-90
2023/12/31 00:19:45;;;;;;;44.50;23.30;;;;;;;4.39;100.00;99043.48;273361;1270;22189;-90
2023/12/31 00:25:46;;;;;;;41.60;23.80;;;;;;;4.43;100.00;99042.86;273302;1270;22228;-89
2023/12/31 00:31:47;;;;;;;38.80;21.30;;;;;;;4.45;100.00;99051.39;272715;1270;22565;-91
2023/12/31 00:37:49;;;;;;;42.80;22.20;;;;;;;4.45;100.00;99050.23;273387;1266;22333;-90
2023/12/31 00:43:50;;;;;;;39.10;21.70;;;;;;;4.50;100.00;99051.79;273335;1272;22244;-90
2023/12/31 00:49:51;;;;;;;36.20;20.40;;;;;;;4.56;100.00;99055.41;273315;1270;22312;-90
2023/12/31 00:55:52;;;;;;;35.90;19.30;;;;;;;4.59;100.00;99052.95;273286;1269;23594;-90
2023/12/31 01:01:54;;;;;;;33.70;19.50;;;;;;;4.62;100.00;99055.46;273172;1272;22164;-90
2023/12/31 01:07:58;;;;;;;31.80;19.80;;;;;;;4.64;100.00;99058.26;273124;1263;22544;-90
2023/12/31 01:13:59;;;;;;;31.50;18.40;;;;;;;4.67;100.00;99058.37;273116;1270;22204;-90
2023/12/31 01:20:04;;;;;;;29.90;18.60;;;;;;;4.68;100.00;99060.33;273144;1265;22534;-90
2023/12/31 01:26:05;;;;;;;31.60;18.70;;;;;;;4.71;100.00;99062.94;273321;1270;22649;-90
2023/12/31 01:32:06;;;;;;;31.50;17.10;;;;;;;4.72;100.00;99061.65;273280;1270;22212;-90
2023/12/31 01:38:09;;;;;;;31.50;17.90;;;;;;;4.73;100.00;99058.80;273310;1269;22325;-89
2023/12/31 01:44:11;;;;;;;26.00;16.60;;;;;;;4.75;100.00;99058.18;271247;1269;22548;-91
2023/12/31 01:50:14;;;;;;;28.20;14.80;;;;;;;4.74;100.00;99053.34;271588;1269;22292;-90
2023/12/31 01:56:15;;;;;;;26.40;15.70;;;;;;;4.68;100.00;99044.94;271664;1271;22418;-89
2023/12/31 02:02:18;;;;;;;23.50;14.50;;;;;;;4.55;100.00;99041.81;270431;1259;24043;-90
2023/12/31 02:08:23;;;;;;;25.70;14.60;;;;;;;4.34;100.00;99043.55;271399;1269;22677;-90
2023/12/31 02:14:24;;;;;;;25.80;13.90;;;;;;;4.16;100.00;99049.01;273191;1269;22981;-90
2023/12/31 02:20:28;;;;;;;25.10;13.10;;;;;;;3.93;100.00;99047.59;273304;1270;22428;-89
2023/12/31 02:26:31;;;;;;;27.80;14.50;;;;;;;3.64;100.00;99049.35;270485;1272;22673;-89
2023/12/31 02:32:32;;;;;;;21.30;12.60;;;;;;;3.46;100.00;99043.50;272634;1260;116379;-89
2023/12/31 02:38:34;;;;;;;25.40;14.30;;;;;;;3.28;100.00;99041.08;272986;1269;22353;-89
2023/12/31 02:44:35;;;;;;;25.80;14.10;;;;;;;3.12;100.00;99038.05;273316;1267;22227;-90
2023/12/31 02:50:37;;;;;;;25.70;14.80;;;;;;;2.94;100.00;99029.42;273451;1270;22239;-90
2023/12/31 02:56:41;;;;;;;22.50;14.00;;;;;;;2.82;100.00;99028.85;271593;1269;23271;-90
2023/12/31 03:02:42;;;;;;;27.50;14.30;;;;;;;2.68;100.00;99027.94;272639;1269;23456;-90
2023/12/31 03:08:43;;;;;;;21.30;11.20;;;;;;;2.49;100.00;99033.08;273298;1269;22246;-89
2023/12/31 03:14:45;;;;;;;23.60;12.50;;;;;;;2.32;100.00;99039.04;273473;1268;22273;-89
2023/12/31 03:20:46;;;;;;;19.80;10.70;;;;;;;2.18;100.00;99043.34;273190;1270;23417;-90
2023/12/31 03:26:47;;;;;;;20.60;12.00;;;;;;;2.01;100.00;99044.52;273290;1270;22289;-90
2023/12/31 03:32:49;;;;;;;24.30;11.60;;;;;;;1.90;100.00;99044.92;273161;1269;22732;-90
2023/12/31 03:38:51;;;;;;;27.70;15.60;;;;;;;1.71;100.00;99039.05;273294;1270;23087;-91
2023/12/31 03:44:52;;;;;;;25.20;14.10;;;;;;;1.56;100.00;99037.04;273203;1270;22441;-90
2023/12/31 03:50:55;;;;;;;25.50;13.30;;;;;;;1.48;100.00;99035.75;273316;1269;23195;-90
2023/12/31 03:56:57;;;;;;;24.20;14.70;;;;;;;1.40;100.00;99037.55;273255;1270;22372;-90
2023/12/31 04:02:59;;;;;;;26.00;13.80;;;;;;;1.36;100.00;99037.63;273423;1259;23704;-89
2023/12/31 04:09:02;;;;;;;24.50;14.60;;;;;;;1.34;100.00;99034.84;271926;1270;23504;-90
2023/12/31 04:15:07;;;;;;;23.00;14.00;;;;;;;1.23;100.00;99035.04;272075;1272;22522;-89
2023/12/31 04:21:09;;;;;;;25.00;12.90;;;;;;;1.10;100.00;99032.91;273307;1262;22210;-89
2023/12/31 04:27:10;;;;;;;26.00;14.30;;;;;;;0.97;100.00;99034.90;273391;1271;22580;-90
2023/12/31 04:33:11;;;;;;;23.40;12.00;;;;;;;0.83;100.00;99039.00;272186;1271;22292;-90
2023/12/31 04:39:13;;;;;;;30.70;17.50;;;;;;;0.71;100.00;99041.25;272831;1270;22362;-90
2023/12/31 04:45:14;;;;;;;25.20;13.70;;;;;;;0.62;100.00;99036.54;273384;1270;22231;-90
2023/12/31 04:51:29;;;;;;;25.30;13.90;;;;;;;0.53;100.00;99032.96;273275;1269;22744;-90
2023/12/31 04:57:30;;;;;;;25.00;11.70;;;;;;;0.51;100.00;99035.48;273467;1257;23350;-90
2023/12/31 05:03:32;;;;;;;24.90;13.40;;;;;;;0.49;100.00;99028.63;272420;1272;22642;-90
2023/12/31 05:09:35;;;;;;;18.00;9.60;;;;;;;0.43;100.00;99029.34;272623;1269;22614;-89
2023/12/31 05:15:37;;;;;;;20.90;11.00;;;;;;;0.33;100.00;99029.52;270293;1269;22593;-89
2023/12/31 05:21:39;;;;;;;27.70;12.00;;;;;;;0.30;100.00;99021.29;271151;1270;22507;-90
2023/12/31 05:27:41;;;;;;;18.40;10.40;;;;;;;0.21;100.00;99019.74;272471;1272;22291;-91
2023/12/31 05:33:42;;;;;;;20.90;11.20;;;;;;;0.14;100.00;99011.52;273325;1269;22630;-90
2023/12/31 05:39:45;;;;;;;22.30;11.70;;;;;;;0.09;100.00;99000.63;273246;1270;22169;-87
2023/12/31 05:45:46;;;;;;;22.20;10.80;;;;;;;0.03;100.00;98995.59;273340;1272;22335;-89
2023/12/31 05:51:47;;;;;;;21.50;10.50;;;;;;;-0.09;100.00;98988.50;273316;1253;22340;-89
2023/12/31 05:57:48;;;;;;;21.60;11.70;;;;;;;-0.13;100.00;98990.91;273175;1269;23532;-89
2023/12/31 06:03:50;;;;;;;18.20;9.90;;;;;;;-0.17;100.00;98989.35;273051;1269;23120;-89
2023/12/31 06:09:51;;;;;;;21.00;10.30;;;;;;;-0.27;100.00;98985.10;273134;1270;22510;-89
2023/12/31 06:15:52;;;;;;;26.60;13.90;;;;;;;-0.29;100.00;98984.42;273264;1269;23397;-88
2023/12/31 06:21:54;;;;;;;24.20;12.30;;;;;;;-0.33;100.00;98981.23;273277;1271;22304;-89
2023/12/31 06:27:57;;;;;;;29.60;13.80;;;;;;;-0.39;100.00;98980.29;273433;1270;22347;-89
2023/12/31 06:33:58;;;;;;;26.50;13.20;;;;;;;-0.45;100.00;98967.30;272658;1272;22429;-88
2023/12/31 06:39:59;;;;;;;36.00;16.90;;;;;;;-0.46;100.00;98963.16;272328;1272;22582;-89
2023/12/31 06:46:02;;;;;;;43.40;18.20;;;;;;;-0.50;100.00;98958.25;272407;1272;22325;-88
2023/12/31 06:52:04;;;;;;;36.30;16.50;;;;;;;-0.52;100.00;98952.10;272188;1271;22530;-88
2023/12/31 06:58:05;;;;;;;31.40;14.80;;;;;;;-0.53;100.00;98947.66;273003;1270;22416;-88
2023/12/31 07:04:06;;;;;;;34.50;14.20;;;;;;;-0.52;100.00;98948.08;273372;1272;22222;-88
2023/12/31 07:10:08;;;;;;;35.40;16.40;;;;;;;-0.50;100.00;98945.62;273054;1269;22201;-88
2023/12/31 07:16:10;;;;;;;37.80;16.80;;;;;;;-0.45;100.00;98936.73;273015;1269;22649;-88
2023/12/31 07:22:11;;;;;;;40.20;18.10;;;;;;;-0.37;100.00;98930.11;270531;1270;23945;-87
2023/12/31 07:28:12;;;;;;;40.60;18.50;;;;;;;-0.31;100.00;98927.42;271211;1269;22424;-88
2023/12/31 07:34:15;;;;;;;33.10;14.60;;;;;;;-0.28;100.00;98918.31;272867;1269;22215;-88
2023/12/31 07:40:16;;;;;;;38.20;19.10;;;;;;;-0.27;100.00;98912.69;271663;1270;22412;-88
2023/12/31 07:46:17;;;;;;;44.50;19.80;;;;;;;-0.15;100.00;98912.67;273325;1269;23208;-87
2023/12/31 07:52:18;;;;;;;42.80;21.50;;;;;;;0.05;100.00;98902.60;271736;1269;23540;-88
2023/12/31 07:58:24;;;;;;;50.00;22.30;;;;;;;0.18;100.00;98893.04;273396;1270;23543;-88
2023/12/31 08:04:25;;;;;;;41.30;21.90;;;;;;;0.25;100.00;98881.45;273305;1269;22235;-88
2023/12/31 08:10:27;;;;;;;54.60;29.10;;;;;;;0.37;100.00;98876.27;273178;1270;22439;-88
2023/12/31 08:16:28;;;;;;;45.60;21.80;;;;;;;0.55;100.00;98874.48;273205;1269;22189;-88
2023/12/31 08:22:29;;;;;;;40.80;23.00;;;;;;;0.70;100.00;98873.75;273207;1272;22180;-88
2023/12/31 08:28:30;;;;;;;45.70;24.80;;;;;;;0.75;100.00;98869.83;273267;1269;22385;-89
2023/12/31 08:34:32;;;;;;;60.30;28.80;;;;;;;0.87;100.00;98862.63;273311;1270;22187;-88
2023/12/31 08:40:33;;;;;;;64.70;28.60;;;;;;;1.01;100.00;98859.90;273309;1270;22442;-89
2023/12/31 08:46:34;;;;;;;54.80;28.90;;;;;;;1.18;100.00;98858.95;273277;1269;22543;-88
2023/12/31 08:52:39;;;;;;;56.40;29.00;;;;;;;1.40;100.00;98855.50;273349;1270;22388;-89
2023/12/31 08:58:40;;;;;;;61.50;31.60;;;;;;;1.58;100.00;98844.13;273335;1269;22393;-88
2023/12/31 09:04:42;;;;;;;61.50;29.10;;;;;;;1.83;100.00;98839.11;273381;1273;22981;-89
2023/12/31 09:10:43;;;;;;;59.10;28.20;;;;;;;2.33;100.00;98831.54;273193;1269;22233;-89
2023/12/31 09:16:45;;;;;;;45.50;21.40;;;;;;;3.01;100.00;98824.64;273348;1272;22267;-89
2023/12/31 09:22:47;;;;;;;39.90;22.30;;;;;;;3.58;100.00;98820.80;273090;1274;22340;-89
2023/12/31 09:28:50;;;;;;;42.90;24.70;;;;;;;4.08;100.00;98810.87;272013;1271;22536;-90
2023/12/31 09:34:51;;;;;;;42.40;23.90;;;;;;;4.30;100.00;98803.77;273111;1275;23109;-89
2023/12/31 09:40:52;;;;;;;34.20;18.10;;;;;;;4.60;100.00;98789.88;273242;1269;23131;-90
2023/12/31 09:47:05;;;;;;;27.90;18.40;;;;;;;5.03;100.00;98779.32;273182;1272;22331;-90
2023/12/31 09:53:08;;;;;;;29.10;17.40;;;;;;;5.24;100.00;98771.08;272801;1272;22261;-90
2023/12/31 10:01:29;;;;;;;27.30;17.40;;;;;;;5.23;100.00;98752.67;262496;1304;544888;-91
2023/12/31 10:07:35;;;;;;;33.10;19.70;;;;;;;5.31;100.00;98742.98;268618;1281;23355;-93
2023/12/31 10:13:42;;;;;;;;;;;;;;;5.56;100.00;98740.03;266919;1278;2339632;-92
2023/12/31 10:19:45;;;;;;;31.40;18.30;;;;;;;5.73;100.00;98731.54;268885;1278;22574;-92
2023/12/31 10:25:50;;;;;;;29.00;17.30;;;;;;;5.94;100.00;98724.95;270657;1267;22542;-90
2023/12/31 10:31:55;;;;;;;28.10;18.00;;;;;;;6.09;100.00;98717.11;270978;1268;23344;-93
2023/12/31 10:38:06;;;;;;;28.90;18.90;;;;;;;6.19;100.00;98708.64;271216;1267;25394;-93
2023/12/31 10:44:13;;;;;;;33.90;21.70;;;;;;;6.09;100.00;98701.36;271012;1268;22728;-93
2023/12/31 10:50:21;;;;;;;31.90;20.00;;;;;;;5.85;100.00;98693.69;270199;1268;23490;-92
2023/12/31 10:56:25;;;;;;;30.50;19.90;;;;;;;5.75;100.00;98683.24;269924;1269;22690;-92
2023/12/31 11:02:34;;;;;;;33.00;22.00;;;;;;;5.66;100.00;98668.84;270318;1268;25351;-91
2023/12/31 11:08:42;;;;;;;33.10;22.20;;;;;;;5.77;100.00;98667.03;270250;1267;22534;-92
2023/12/31 11:15:14;;;;;;;35.90;21.90;;;;;;;5.88;100.00;98653.71;270718;1265;22656;-91
2023/12/31 11:21:57;;;;;;;31.00;21.20;;;;;;;5.90;100.00;98646.09;270307;1267;25252;-91
2023/12/31 11:28:00;;;;;;;34.90;21.40;;;;;;;6.01;100.00;98630.90;270536;1268;25313;-92
2023/12/31 11:34:04;;;;;;;37.90;22.10;;;;;;;6.26;100.00;98627.28;270384;1255;22622;-90
2023/12/31 11:40:09;;;;;;;27.50;17.70;;;;;;;6.44;100.00;98616.79;270413;1269;24092;-93
2023/12/31 11:46:32;;;;;;;28.30;16.20;;;;;;;6.60;100.00;98599.09;270818;1269;23221;-94
2023/12/31 11:52:54;;;;;;;22.90;15.80;;;;;;;6.74;100.00;98584.69;270394;1267;22531;-92
2023/12/31 11:58:59;;;;;;;26.70;16.50;;;;;;;6.86;100.00;98575.05;270453;1268;22633;-91
2023/12/31 12:05:10;;;;;;;31.00;18.30;;;;;;;6.91;100.00;98564.34;271004;1267;23412;-91
2023/12/31 12:11:14;;;;;;;26.20;15.30;;;;;;;7.00;100.00;98552.52;270334;1269;22683;-93
2023/12/31 12:17:19;;;;;;;23.60;15.30;;;;;;;7.18;100.00;98536.20;270503;1267;22554;-92
2023/12/31 12:23:25;;;;;;;23.70;14.40;;;;;;;7.33;100.00;98519.27;270494;1274;24294;-92
2023/12/31 12:29:30;;;;;;;19.40;12.40;;;;;;;7.39;100.00;98512.83;270638;1268;23730;-92
2023/12/31 13:10:52;;;;;;;17.10;11.80;;;;;;;7.23;100.00;98477.41;267018;1293;22386;-91
2023/12/31 13:18:20;;;;;;;23.90;13.40;;;;;;;7.12;100.00;98473.42;270950;1292;22236;-90
2023/12/31 13:41:20;;;;;;;24.10;12.50;;;;;;;6.89;100.00;98445.12;271166;1292;22276;-89
2023/12/31 14:04:57;;;;;;;18.30;11.40;;;;;;;6.48;100.00;98419.55;270942;1284;22283;-90
2023/12/31 15:36:05;;;;;;;24.70;14.10;;;;;;;4.88;100.00;98336.30;262605;1298;5742855;-90
2023/12/31 15:42:53;;;;;;;23.60;14.10;;;;;;;5.16;100.00;98327.48;271734;1282;22358;-90
2023/12/31 15:50:05;;;;;;;21.60;12.10;;;;;;;5.24;100.00;98329.30;271511;1282;22221;-89
2023/12/31 16:05:42;;;;;;;21.10;13.00;;;;;;;5.13;100.00;98319.92;267522;1288;22466;-89
2023/12/31 16:28:51;;;;;;;37.30;21.60;;;;;;;5.15;100.00;98300.51;272043;1287;22293;-89
2023/12/31 16:36:42;;;;;;;31.90;18.90;;;;;;;5.11;100.00;98301.81;271732;1286;22692;-90
2023/12/31 17:00:36;;;;;;;31.90;16.60;;;;;;;4.97;100.00;98288.17;266904;1289;22277;-88
2023/12/31 17:08:27;;;;;;;31.60;16.50;;;;;;;4.94;100.00;98280.13;266588;1299;22434;-91
2023/12/31 17:22:59;;;;;;;;;;;;;;;4.73;100.00;98268.34;268270;1297;22491;-91
2023/12/31 17:29:18;;;;;;;31.50;16.60;;;;;;;4.60;100.00;98249.47;270274;1286;22334;-91
2023/12/31 17:36:36;;;;;;;38.00;21.10;;;;;;;4.43;100.00;98239.25;271991;1273;22656;-89
2023/12/31 17:43:37;;;;;;;31.00;17.60;;;;;;;4.34;100.00;98248.48;271344;1274;22288;-90
2023/12/31 17:58:30;;;;;;;34.10;20.40;;;;;;;4.20;100.00;98232.98;272894;1279;22567;-90
2023/12/31 18:05:40;;;;;;;37.10;21.20;;;;;;;4.10;100.00;98234.52;271542;1279;23314;-90
2023/12/31 18:29:06;;;;;;;52.20;29.00;;;;;;;3.60;100.00;98203.86;270989;1280;22430;-90
2023/12/31 18:35:46;;;;;;;48.50;27.90;;;;;;;3.46;100.00;98196.67;272929;1273;22418;-90
2023/12/31 18:42:27;;;;;;;36.60;20.80;;;;;;;3.43;100.00;98191.43;272896;1275;22214;-90
2023/12/31 18:58:19;;;;;;;42.50;22.70;;;;;;;3.16;100.00;98168.54;270722;1285;22301;-89
2023/12/31 19:06:21;;;;;;;55.40;28.10;;;;;;;3.00;100.00;98151.81;270807;1292;23595;-90
2023/12/31 19:36:59;;;;;;;62.30;30.10;;;;;;;2.66;100.00;98107.40;271224;1290;22294;-90
2023/12/31 20:07:31;;;;;;;58.70;29.80;;;;;;;2.90;100.00;98110.54;272166;1282;22395;-89
2023/12/31 20:15:24;;;;;;;57.20;26.70;;;;;;;2.93;100.00;98113.38;272400;1284;22246;-88
2023/12/31 20:30:11;;;;;;;;;;;;;;;;;;;;;
2023/12/31 20:37:47;;;;;;;58.50;29.70;;;;;;;2.83;100.00;98116.90;270502;1291;23337;-89
2023/12/31 21:08:58;;;;;;;47.90;26.30;;;;;;;2.68;100.00;98131.40;268411;1286;22470;-89
2023/12/31 21:16:49;;;;;;;54.90;28.30;;;;;;;2.59;100.00;98136.68;269736;1294;22262;-90
2023/12/31 21:32:26;;;;;;;54.80;29.30;;;;;;;2.46;100.00;98154.92;270582;1293;22408;-89
2023/12/31 21:38:58;;;;;;;61.80;33.00;;;;;;;2.44;100.00;98156.23;270202;1295;22253;-89
2023/12/31 22:24:32;;;;;;;72.30;39.70;;;;;;;2.57;100.00;98135.09;273122;1276;22426;-89
2023/12/31 22:39:30;;;;;;;73.50;37.80;;;;;;;2.49;100.00;98133.63;271680;1280;23325;-89
2023/12/31 22:46:00;;;;;;;83.10;43.00;;;;;;;2.39;100.00;98142.44;271640;1286;23007;-88
2023/12/31 23:00:30;;;;;;;64.40;35.80;;;;;;;2.24;100.00;98136.96;271900;1285;22818;-90
2023/12/31 23:23:23;;;;;;;73.30;38.50;;;;;;;2.15;100.00;98167.88;272368;1281;22223;-89
